sensor_id;sensor_type;location;lat;lon;timestamp;pressure;altitude;pressure_sealevel;temperature;humidity
60373;BME280;46216;52.220;5.134;2023-04-03T00:01:03;103235.97;;;4.31;100.00
60373;BME280;46216;52.220;5.134;2023-04-03T00:03:29;103237.78;;;4.27;100.00
60373;BME280;46216;52.220;5.134;2023-04-03T00:05:54;103235.16;;;4.25;100.00
60373;BME280;46216;52.220;5.134;2023-04-03T00:08:20;103232.50;;;4.25;100.00
60373;BME280;46216;52.220;5.134;2023-04-03T00:10:45;103239.59;;;4.20;100.00
60373;BME280;46216;52.220;5.134;2023-04-03T00:13:11;103244.84;;;4.23;100.00
60373;BME280;46216;52.220;5.134;2023-04-03T00:15:38;103242.22;;;4.20;100.00
60373;BME280;46216;52.220;5.134;2023-04-03T00:18:04;103244.00;;;4.18;100.00
60373;BME280;46216;52.220;5.134;2023-04-03T00:20:30;103244.88;;;4.17;100.00
60373;BME280;46216;52.220;5.134;2023-04-03T00:22:55;103240.50;;;4.16;100.00
60373;BME280;46216;52.220;5.134;2023-04-03T00:25:21;103245.78;;;4.16;100.00
60373;BME280;46216;52.220;5.134;2023-04-03T00:27:46;103241.38;;;4.17;100.00
60373;BME280;46216;52.220;5.134;2023-04-03T00:30:14;103243.16;;;4.13;100.00
60373;BME280;46216;52.220;5.134;2023-04-03T00:32:40;103246.66;;;4.15;100.00
60373;BME280;46216;52.220;5.134;2023-04-03T00:35:06;103245.81;;;4.10;100.00
60373;BME280;46216;52.220;5.134;2023-04-03T00:37:32;103249.31;;;4.11;100.00
60373;BME280;46216;52.220;5.134;2023-04-03T00:39:57;103252.88;;;4.07;100.00
60373;BME280;46216;52.220;5.134;2023-04-03T00:42:23;103250.25;;;4.05;100.00
60373;BME280;46216;52.220;5.134;2023-04-03T00:47:21;103255.56;;;3.99;100.00
60373;BME280;46216;52.220;5.134;2023-04-03T00:49:47;103245.91;;;3.98;100.00
60373;BME280;46216;52.220;5.134;2023-04-03T00:52:16;103259.09;;;3.98;100.00
60373;BME280;46216;52.220;5.134;2023-04-03T00:54:43;103252.94;;;3.96;100.00
60373;BME280;46216;52.220;5.134;2023-04-03T00:57:11;103259.97;;;3.97;100.00
60373;BME280;46216;52.220;5.134;2023-04-03T00:59:41;103258.25;;;3.93;100.00
60373;BME280;46216;52.220;5.134;2023-04-03T01:02:09;103260.00;;;3.94;100.00
60373;BME280;46216;52.220;5.134;2023-04-03T01:04:39;103260.91;;;3.91;100.00
60373;BME280;46216;52.220;5.134;2023-04-03T01:07:11;103267.94;;;3.91;100.00
60373;BME280;46216;52.220;5.134;2023-04-03T01:09:38;103268.81;;;3.90;100.00
60373;BME280;46216;52.220;5.134;2023-04-03T01:12:16;103270.56;;;3.89;100.00
60373;BME280;46216;52.220;5.134;2023-04-03T01:14:46;103273.25;;;3.88;100.00
60373;BME280;46216;52.220;5.134;2023-04-03T01:17:49;103272.38;;;3.83;100.00
60373;BME280;46216;52.220;5.134;2023-04-03T01:25:31;103261.81;;;3.83;100.00
60373;BME280;46216;52.220;5.134;2023-04-03T01:27:56;103262.72;;;3.77;100.00
60373;BME280;46216;52.220;5.134;2023-04-03T01:30:33;103267.09;;;3.83;100.00
60373;BME280;46216;52.220;5.134;2023-04-03T01:32:59;103269.75;;;3.81;100.00
60373;BME280;46216;52.220;5.134;2023-04-03T01:35:25;103269.78;;;3.73;100.00
60373;BME280;46216;52.220;5.134;2023-04-03T01:37:50;103278.53;;;3.77;100.00
60373;BME280;46216;52.220;5.134;2023-04-03T01:40:16;103273.31;;;3.72;100.00
60373;BME280;46216;52.220;5.134;2023-04-03T01:42:41;103266.25;;;3.76;100.00
60373;BME280;46216;52.220;5.134;2023-04-03T01:45:07;103273.28;;;3.75;100.00
60373;BME280;46216;52.220;5.134;2023-04-03T01:47:33;103268.91;;;3.73;100.00
60373;BME280;46216;52.220;5.134;2023-04-03T01:49:58;103265.41;;;3.72;100.00
60373;BME280;46216;52.220;5.134;2023-04-03T01:52:23;103263.66;;;3.68;100.00
60373;BME280;46216;52.220;5.134;2023-04-03T01:54:49;103268.06;;;3.71;100.00
60373;BME280;46216;52.220;5.134;2023-04-03T01:57:15;103269.84;;;3.63;100.00
60373;BME280;46216;52.220;5.134;2023-04-03T01:59:41;103273.34;;;3.65;100.00
60373;BME280;46216;52.220;5.134;2023-04-03T02:02:06;103275.97;;;3.63;100.00
60373;BME280;46216;52.220;5.134;2023-04-03T02:04:32;103275.13;;;3.61;100.00
60373;BME280;46216;52.220;5.134;2023-04-03T02:06:57;103278.66;;;3.59;100.00
60373;BME280;46216;52.220;5.134;2023-04-03T02:09:23;103279.53;;;3.56;100.00
60373;BME280;46216;52.220;5.134;2023-04-03T02:11:48;103279.53;;;3.53;100.00
60373;BME280;46216;52.220;5.134;2023-04-03T02:14:13;103281.31;;;3.51;100.00
60373;BME280;46216;52.220;5.134;2023-04-03T02:16:39;103282.16;;;3.53;100.00
60373;BME280;46216;52.220;5.134;2023-04-03T02:19:04;103278.69;;;3.54;100.00
60373;BME280;46216;52.220;5.134;2023-04-03T02:21:30;103279.56;;;3.51;100.00
60373;BME280;46216;52.220;5.134;2023-04-03T02:23:55;103277.81;;;3.49;100.00
60373;BME280;46216;52.220;5.134;2023-04-03T02:26:21;103276.97;;;3.44;100.00
60373;BME280;46216;52.220;5.134;2023-04-03T02:28:47;103281.34;;;3.42;100.00
60373;BME280;46216;52.220;5.134;2023-04-03T02:31:12;103281.34;;;3.39;100.00
60373;BME280;46216;52.220;5.134;2023-04-03T02:33:37;103288.41;;;3.40;100.00
60373;BME280;46216;52.220;5.134;2023-04-03T02:36:06;103289.28;;;3.36;100.00
60373;BME280;46216;52.220;5.134;2023-04-03T02:38:32;103291.06;;;3.34;100.00
60373;BME280;46216;52.220;5.134;2023-04-03T02:41:02;103287.56;;;3.30;100.00
60373;BME280;46216;52.220;5.134;2023-04-03T02:43:28;103291.03;;;3.32;100.00
60373;BME280;46216;52.220;5.134;2023-04-03T02:45:53;103303.34;;;3.31;100.00
60373;BME280;46216;52.220;5.134;2023-04-03T02:48:18;103298.09;;;3.30;100.00
60373;BME280;46216;52.220;5.134;2023-04-03T02:50:44;103300.75;;;3.24;100.00
60373;BME280;46216;52.220;5.134;2023-04-03T02:53:09;103300.72;;;3.22;100.00
60373;BME280;46216;52.220;5.134;2023-04-03T02:55:35;103303.38;;;3.21;100.00
60373;BME280;46216;52.220;5.134;2023-04-03T02:58:00;103316.56;;;3.16;100.00
60373;BME280;46216;52.220;5.134;2023-04-03T03:00:26;103313.06;;;3.17;100.00
60373;BME280;46216;52.220;5.134;2023-04-03T03:02:51;103314.81;;;3.12;100.00
60373;BME280;46216;52.220;5.134;2023-04-03T03:05:16;103321.84;;;3.12;100.00
60373;BME280;46216;52.220;5.134;2023-04-03T03:07:42;103320.97;;;3.13;100.00
60373;BME280;46216;52.220;5.134;2023-04-03T03:10:07;103319.22;;;3.07;100.00
60373;BME280;46216;52.220;5.134;2023-04-03T03:12:33;103322.72;;;3.04;100.00
60373;BME280;46216;52.220;5.134;2023-04-03T03:14:58;103327.13;;;2.99;100.00
60373;BME280;46216;52.220;5.134;2023-04-03T03:17:23;103331.53;;;3.03;100.00
60373;BME280;46216;52.220;5.134;2023-04-03T03:19:49;103332.41;;;3.01;100.00
60373;BME280;46216;52.220;5.134;2023-04-03T03:22:16;103333.28;;;2.94;100.00
60373;BME280;46216;52.220;5.134;2023-04-03T03:24:41;103335.91;;;2.94;100.00
60373;BME280;46216;52.220;5.134;2023-04-03T03:27:06;103340.28;;;2.98;100.00
60373;BME280;46216;52.220;5.134;2023-04-03T03:29:32;103337.69;;;2.93;100.00
60373;BME280;46216;52.220;5.134;2023-04-03T03:31:57;103336.81;;;2.90;100.00
60373;BME280;46216;52.220;5.134;2023-04-03T03:34:22;103336.78;;;2.88;100.00
60373;BME280;46216;52.220;5.134;2023-04-03T03:36:47;103333.28;;;2.89;100.00
60373;BME280;46216;52.220;5.134;2023-04-03T03:39:13;103335.06;;;2.86;100.00
60373;BME280;46216;52.220;5.134;2023-04-03T03:41:38;103328.91;;;2.83;100.00
60373;BME280;46216;52.220;5.134;2023-04-03T03:44:04;103335.91;;;2.81;100.00
60373;BME280;46216;52.220;5.134;2023-04-03T03:46:29;103336.81;;;2.82;100.00
60373;BME280;46216;52.220;5.134;2023-04-03T03:48:55;103342.94;;;2.79;100.00
60373;BME280;46216;52.220;5.134;2023-04-03T03:51:20;103333.28;;;2.78;100.00
60373;BME280;46216;52.220;5.134;2023-04-03T03:53:45;103348.22;;;2.79;100.00
60373;BME280;46216;52.220;5.134;2023-04-03T03:56:11;103346.44;;;2.77;100.00
60373;BME280;46216;52.220;5.134;2023-04-03T03:58:36;103341.19;;;2.77;100.00
60373;BME280;46216;52.220;5.134;2023-04-03T04:01:06;103347.34;;;2.76;100.00
60373;BME280;46216;52.220;5.134;2023-04-03T04:03:32;103338.56;;;2.72;100.00
60373;BME280;46216;52.220;5.134;2023-04-03T04:05:58;103342.94;;;2.73;100.00
60373;BME280;46216;52.220;5.134;2023-04-03T04:08:24;103338.53;;;2.68;100.00
60373;BME280;46216;52.220;5.134;2023-04-03T04:10:49;103352.59;;;2.67;100.00
60373;BME280;46216;52.220;5.134;2023-04-03T04:13:15;103350.84;;;2.66;100.00
60373;BME280;46216;52.220;5.134;2023-04-03T04:15:40;103352.59;;;2.64;100.00
60373;BME280;46216;52.220;5.134;2023-04-03T04:18:06;103364.88;;;2.65;100.00
60373;BME280;46216;52.220;5.134;2023-04-03T04:20:31;103364.88;;;2.65;100.00
60373;BME280;46216;52.220;5.134;2023-04-03T04:22:56;103364.00;;;2.61;100.00
60373;BME280;46216;52.220;5.134;2023-04-03T04:25:21;103355.22;;;2.62;100.00
60373;BME280;46216;52.220;5.134;2023-04-03T04:27:47;103366.63;;;2.61;100.00
60373;BME280;46216;52.220;5.134;2023-04-03T04:30:13;103366.63;;;2.59;100.00
60373;BME280;46216;52.220;5.134;2023-04-03T04:32:38;103364.00;;;2.55;100.00
60373;BME280;46216;52.220;5.134;2023-04-03T04:35:04;103359.59;;;2.52;100.00
60373;BME280;46216;52.220;5.134;2023-04-03T04:37:30;103356.94;;;2.48;100.00
60373;BME280;46216;52.220;5.134;2023-04-03T04:39:56;103365.72;;;2.47;100.00
60373;BME280;46216;52.220;5.134;2023-04-03T04:42:21;103367.47;;;2.51;100.00
60373;BME280;46216;52.220;5.134;2023-04-03T04:44:46;103358.69;;;2.41;100.00
60373;BME280;46216;52.220;5.134;2023-04-03T04:47:12;103361.34;;;2.50;100.00
60373;BME280;46216;52.220;5.134;2023-04-03T04:49:37;103362.22;;;2.39;100.00
60373;BME280;46216;52.220;5.134;2023-04-03T04:52:03;103363.94;;;2.41;100.00
60373;BME280;46216;52.220;5.134;2023-04-03T04:54:28;103374.50;;;2.43;100.00
60373;BME280;46216;52.220;5.134;2023-04-03T04:56:53;103374.50;;;2.44;100.00
60373;BME280;46216;52.220;5.134;2023-04-03T04:59:19;103374.50;;;2.40;100.00
60373;BME280;46216;52.220;5.134;2023-04-03T05:01:44;103374.47;;;2.33;100.00
60373;BME280;46216;52.220;5.134;2023-04-03T05:04:09;103381.50;;;2.37;100.00
60373;BME280;46216;52.220;5.134;2023-04-03T05:06:35;103384.13;;;2.37;100.00
60373;BME280;46216;52.220;5.134;2023-04-03T05:09:01;103379.75;;;2.35;100.00
60373;BME280;46216;52.220;5.134;2023-04-03T05:11:26;103387.63;;;2.33;100.00
60373;BME280;46216;52.220;5.134;2023-04-03T05:13:52;103380.59;;;2.34;100.00
60373;BME280;46216;52.220;5.134;2023-04-03T05:16:17;103396.41;;;2.32;100.00
60373;BME280;46216;52.220;5.134;2023-04-03T05:18:42;103404.31;;;2.35;100.00
60373;BME280;46216;52.220;5.134;2023-04-03T05:21:07;103400.78;;;2.33;100.00
60373;BME280;46216;52.220;5.134;2023-04-03T05:23:33;103405.19;;;2.33;100.00
60373;BME280;46216;52.220;5.134;2023-04-03T05:25:58;103414.81;;;2.29;100.00
60373;BME280;46216;52.220;5.134;2023-04-03T05:28:23;103407.78;;;2.25;100.00
60373;BME280;46216;52.220;5.134;2023-04-03T05:30:53;103411.28;;;2.30;100.00
60373;BME280;46216;52.220;5.134;2023-04-03T05:33:20;103415.69;;;2.28;100.00
60373;BME280;46216;52.220;5.134;2023-04-03T05:35:45;103416.56;;;2.29;100.00
60373;BME280;46216;52.220;5.134;2023-04-03T05:38:11;103418.34;;;2.28;100.00
60373;BME280;46216;52.220;5.134;2023-04-03T05:40:36;103416.56;;;2.30;100.00
60373;BME280;46216;52.220;5.134;2023-04-03T05:43:02;103424.47;;;2.32;100.00
60373;BME280;46216;52.220;5.134;2023-04-03T05:45:27;103419.19;;;2.30;100.00
60373;BME280;46216;52.220;5.134;2023-04-03T05:47:53;103419.19;;;2.29;100.00
60373;BME280;46216;52.220;5.134;2023-04-03T05:50:18;103426.22;;;2.33;100.00
60373;BME280;46216;52.220;5.134;2023-04-03T05:52:45;103421.00;;;2.34;100.00
60373;BME280;46216;52.220;5.134;2023-04-03T05:55:12;103417.47;;;2.32;100.00
60373;BME280;46216;52.220;5.134;2023-04-03T05:57:38;103427.13;;;2.36;100.00
60373;BME280;46216;52.220;5.134;2023-04-03T06:00:05;103427.13;;;2.40;100.00
60373;BME280;46216;52.220;5.134;2023-04-03T06:02:31;103420.13;;;2.45;100.00
60373;BME280;46216;52.220;5.134;2023-04-03T06:04:56;103422.75;;;2.48;100.00
60373;BME280;46216;52.220;5.134;2023-04-03T06:07:24;103434.19;;;2.50;100.00
60373;BME280;46216;52.220;5.134;2023-04-03T06:09:52;103428.03;;;2.49;100.00
60373;BME280;46216;52.220;5.134;2023-04-03T06:12:18;103430.66;;;2.54;100.00
60373;BME280;46216;52.220;5.134;2023-04-03T06:14:43;103421.91;;;2.52;100.00
60373;BME280;46216;52.220;5.134;2023-04-03T06:17:09;103432.44;;;2.58;100.00
60373;BME280;46216;52.220;5.134;2023-04-03T06:19:35;103425.44;;;2.63;100.00
60373;BME280;46216;52.220;5.134;2023-04-03T06:22:01;103430.72;;;2.66;100.00
60373;BME280;46216;52.220;5.134;2023-04-03T06:24:28;103432.44;;;2.61;100.00
60373;BME280;46216;52.220;5.134;2023-04-03T06:26:54;103428.09;;;2.74;100.00
60373;BME280;46216;52.220;5.134;2023-04-03T06:29:19;103426.34;;;2.76;100.00
60373;BME280;46216;52.220;5.134;2023-04-03T06:31:46;103421.94;;;2.81;100.00
60373;BME280;46216;52.220;5.134;2023-04-03T06:34:12;103438.66;;;2.86;100.00
60373;BME280;46216;52.220;5.134;2023-04-03T06:36:38;103434.25;;;2.88;100.00
60373;BME280;46216;52.220;5.134;2023-04-03T06:39:04;103441.28;;;2.94;100.00
60373;BME280;46216;52.220;5.134;2023-04-03T06:41:29;103443.91;;;3.01;100.00
60373;BME280;46216;52.220;5.134;2023-04-03T06:43:55;103442.19;;;3.06;100.00
60373;BME280;46216;52.220;5.134;2023-04-03T06:46:22;103446.53;;;3.09;100.00
60373;BME280;46216;52.220;5.134;2023-04-03T06:48:48;103450.94;;;3.04;100.00
60373;BME280;46216;52.220;5.134;2023-04-03T06:51:27;103450.94;;;3.12;100.00
60373;BME280;46216;52.220;5.134;2023-04-03T06:53:54;103450.06;;;3.02;100.00
60373;BME280;46216;52.220;5.134;2023-04-03T06:56:21;103458.88;;;3.16;100.00
60373;BME280;46216;52.220;5.134;2023-04-03T06:58:47;103446.53;;;3.12;100.00
60373;BME280;46216;52.220;5.134;2023-04-03T07:01:14;103463.25;;;3.10;100.00
60373;BME280;46216;52.220;5.134;2023-04-03T07:03:40;103459.72;;;3.18;100.00
60373;BME280;46216;52.220;5.134;2023-04-03T07:06:07;103455.34;;;3.22;100.00
60373;BME280;46216;52.220;5.134;2023-04-03T07:08:33;103462.38;;;3.24;100.00
60373;BME280;46216;52.220;5.134;2023-04-03T07:10:59;103459.72;;;3.32;100.00
60373;BME280;46216;52.220;5.134;2023-04-03T07:13:25;103465.03;;;3.40;100.00
60373;BME280;46216;52.220;5.134;2023-04-03T07:15:50;103469.41;;;3.44;100.00
60373;BME280;46216;52.220;5.134;2023-04-03T07:18:16;103471.16;;;3.51;100.00
60373;BME280;46216;52.220;5.134;2023-04-03T07:20:42;103468.50;;;3.52;100.00
60373;BME280;46216;52.220;5.134;2023-04-03T07:23:08;103469.38;;;3.56;100.00
60373;BME280;46216;52.220;5.134;2023-04-03T07:25:33;103472.03;;;3.54;100.00
60373;BME280;46216;52.220;5.134;2023-04-03T07:27:59;103471.13;;;3.66;100.00
60373;BME280;46216;52.220;5.134;2023-04-03T07:30:24;103471.13;;;3.74;100.00
60373;BME280;46216;52.220;5.134;2023-04-03T07:32:50;103468.47;;;3.78;100.00
60373;BME280;46216;52.220;5.134;2023-04-03T07:35:16;103471.13;;;3.82;100.00
60373;BME280;46216;52.220;5.134;2023-04-03T07:37:42;103476.38;;;3.88;100.00
60373;BME280;46216;52.220;5.134;2023-04-03T07:40:08;103471.94;;;3.96;100.00
60373;BME280;46216;52.220;5.134;2023-04-03T07:42:33;103475.44;;;3.99;100.00
60373;BME280;46216;52.220;5.134;2023-04-03T07:45:00;103476.31;;;4.06;100.00
60373;BME280;46216;52.220;5.134;2023-04-03T07:47:26;103459.59;;;4.06;100.00
60373;BME280;46216;52.220;5.134;2023-04-03T07:49:52;103463.09;;;4.12;100.00
60373;BME280;46216;52.220;5.134;2023-04-03T07:52:17;103468.31;;;4.24;100.00
60373;BME280;46216;52.220;5.134;2023-04-03T07:54:42;103469.19;;;4.33;100.00
60373;BME280;46216;52.220;5.134;2023-04-03T07:57:07;103469.16;;;4.37;100.00
60373;BME280;46216;52.220;5.134;2023-04-03T07:59:33;103473.53;;;4.40;100.00
60373;BME280;46216;52.220;5.134;2023-04-03T08:01:58;103467.31;;;4.53;100.00
60373;BME280;46216;52.220;5.134;2023-04-03T08:04:25;103472.56;;;4.59;100.00
60373;BME280;46216;52.220;5.134;2023-04-03T08:06:51;103477.88;;;4.59;100.00
60373;BME280;46216;52.220;5.134;2023-04-03T08:09:17;103476.06;;;4.64;100.00
60373;BME280;46216;52.220;5.134;2023-04-03T08:11:44;103488.34;;;4.73;100.00
60373;BME280;46216;52.220;5.134;2023-04-03T08:14:09;103489.19;;;4.75;100.00
60373;BME280;46216;52.220;5.134;2023-04-03T08:16:41;103479.53;;;4.76;100.00
60373;BME280;46216;52.220;5.134;2023-04-03T08:19:06;103493.56;;;4.84;100.00
60373;BME280;46216;52.220;5.134;2023-04-03T08:21:32;103488.25;;;4.90;100.00
60373;BME280;46216;52.220;5.134;2023-04-03T08:23:58;103492.53;;;5.05;100.00
60373;BME280;46216;52.220;5.134;2023-04-03T08:26:23;103480.19;;;5.05;100.00
60373;BME280;46216;52.220;5.134;2023-04-03T08:28:48;103482.78;;;5.14;100.00
60373;BME280;46216;52.220;5.134;2023-04-03T08:31:17;103480.94;;;5.26;100.00
60373;BME280;46216;52.220;5.134;2023-04-03T08:33:44;103489.72;;;5.31;100.00
60373;BME280;46216;52.220;5.134;2023-04-03T08:36:21;103482.66;;;5.30;100.00
60373;BME280;46216;52.220;5.134;2023-04-03T08:38:47;103487.84;;;5.42;100.00
60373;BME280;46216;52.220;5.134;2023-04-03T08:41:14;103486.09;;;5.41;100.00
60373;BME280;46216;52.220;5.134;2023-04-03T08:43:58;103483.44;;;5.44;100.00
60373;BME280;46216;52.220;5.134;2023-04-03T08:49:29;103488.50;;;5.67;100.00
60373;BME280;46216;52.220;5.134;2023-04-03T08:51:57;103495.38;;;5.83;100.00
60373;BME280;46216;52.220;5.134;2023-04-03T08:54:33;103484.00;;;5.78;100.00
60373;BME280;46216;52.220;5.134;2023-04-03T08:57:03;103488.28;;;5.87;100.00
60373;BME280;46216;52.220;5.134;2023-04-03T08:59:33;103491.72;;;6.00;100.00
60373;BME280;46216;52.220;5.134;2023-04-03T09:02:04;103477.59;;;6.02;100.00
60373;BME280;46216;52.220;5.134;2023-04-03T09:04:32;103485.44;;;6.11;100.00
60373;BME280;46216;52.220;5.134;2023-04-03T09:07:08;103487.09;;;6.22;100.00
60373;BME280;46216;52.220;5.134;2023-04-03T09:09:40;103486.09;;;6.29;100.00
60373;BME280;46216;52.220;5.134;2023-04-03T09:12:25;103482.44;;;6.37;100.00
60373;BME280;46216;52.220;5.134;2023-04-03T09:17:37;103468.94;;;6.57;100.00
60373;BME280;46216;52.220;5.134;2023-04-03T09:22:42;103454.56;;;6.75;100.00
60373;BME280;46216;52.220;5.134;2023-04-03T09:25:15;103473.94;;;6.80;100.00
60373;BME280;46216;52.220;5.134;2023-04-03T09:27:42;103464.91;;;6.92;100.00
60373;BME280;46216;52.220;5.134;2023-04-03T09:30:13;103472.69;;;7.03;100.00
60373;BME280;46216;52.220;5.134;2023-04-03T09:32:40;103463.53;;;7.24;100.00
60373;BME280;46216;52.220;5.134;2023-04-03T09:35:23;103460.72;;;7.33;100.00
60373;BME280;46216;52.220;5.134;2023-04-03T09:40:41;103460.50;;;7.44;95.61
60373;BME280;46216;52.220;5.134;2023-04-03T09:45:41;103458.56;;;7.53;94.27
60373;BME280;46216;52.220;5.134;2023-04-03T09:55:55;103445.38;;;7.98;91.72
60373;BME280;46216;52.220;5.134;2023-04-03T09:58:36;103427.81;;;7.90;86.39
60373;BME280;46216;52.220;5.134;2023-04-03T10:01:03;103428.25;;;8.12;87.94
60373;BME280;46216;52.220;5.134;2023-04-03T10:03:34;103426.13;;;8.27;86.73
60373;BME280;46216;52.220;5.134;2023-04-03T10:06:02;103416.25;;;8.34;82.37
60373;BME280;46216;52.220;5.134;2023-04-03T10:08:30;103409.59;;;8.57;81.41
60373;BME280;46216;52.220;5.134;2023-04-03T10:11:10;103409.00;;;8.81;75.85
60373;BME280;46216;52.220;5.134;2023-04-03T10:13:37;103409.09;;;9.14;81.20
60373;BME280;46216;52.220;5.134;2023-04-03T10:16:17;103406.78;;;9.34;78.49
60373;BME280;46216;52.220;5.134;2023-04-03T10:21:38;103401.53;;;9.64;72.11
60373;BME280;46216;52.220;5.134;2023-04-03T10:24:18;103395.72;;;9.81;69.11
60373;BME280;46216;52.220;5.134;2023-04-03T10:27:06;103386.03;;;10.09;66.44
60373;BME280;46216;52.220;5.134;2023-04-03T10:29:40;103384.16;;;10.13;58.49
60373;BME280;46216;52.220;5.134;2023-04-03T10:34:42;103378.72;;;10.16;54.02
60373;BME280;46216;52.220;5.134;2023-04-03T10:39:57;103381.09;;;10.55;53.03
60373;BME280;46216;52.220;5.134;2023-04-03T10:42:45;103369.31;;;10.62;49.49
60373;BME280;46216;52.220;5.134;2023-04-03T10:45:46;103372.84;;;10.89;49.79
60373;BME280;46216;52.220;5.134;2023-04-03T10:48:23;103366.75;;;10.85;49.24
60373;BME280;46216;52.220;5.134;2023-04-03T10:51:18;103362.44;;;11.08;48.10
60373;BME280;46216;52.220;5.134;2023-04-03T10:53:56;103360.94;;;11.26;48.40
60373;BME280;46216;52.220;5.134;2023-04-03T11:01:55;103363.06;;;11.65;49.08
60373;BME280;46216;52.220;5.134;2023-04-03T11:04:24;103362.94;;;11.69;47.57
60373;BME280;46216;52.220;5.134;2023-04-03T11:06:57;103360.28;;;11.68;45.18
60373;BME280;46216;52.220;5.134;2023-04-03T11:09:28;103358.34;;;11.73;44.08
60373;BME280;46216;52.220;5.134;2023-04-03T11:12:04;103355.81;;;11.93;45.05
60373;BME280;46216;52.220;5.134;2023-04-03T11:14:36;103362.38;;;11.84;43.86
60373;BME280;46216;52.220;5.134;2023-04-03T11:17:13;103357.84;;;11.87;42.78
60373;BME280;46216;52.220;5.134;2023-04-03T11:19:47;103362.97;;;11.93;43.13
60373;BME280;46216;52.220;5.134;2023-04-03T11:22:24;103361.53;;;11.82;39.85
60373;BME280;46216;52.220;5.134;2023-04-03T11:24:59;103360.00;;;12.22;43.23
60373;BME280;46216;52.220;5.134;2023-04-03T11:30:16;103354.06;;;12.60;42.09
60373;BME280;46216;52.220;5.134;2023-04-03T11:35:29;103336.09;;;12.84;44.28
60373;BME280;46216;52.220;5.134;2023-04-03T11:37:56;103338.28;;;13.16;44.16
60373;BME280;46216;52.220;5.134;2023-04-03T11:40:25;103338.41;;;12.93;42.51
60373;BME280;46216;52.220;5.134;2023-04-03T11:42:55;103336.22;;;13.02;42.97
60373;BME280;46216;52.220;5.134;2023-04-03T11:45:34;103327.09;;;13.07;42.48
60373;BME280;46216;52.220;5.134;2023-04-03T11:50:46;103333.69;;;12.57;40.12
60373;BME280;46216;52.220;5.134;2023-04-03T11:58:18;103335.03;;;12.67;41.45
60373;BME280;46216;52.220;5.134;2023-04-03T12:16:05;103301.31;;;13.45;40.72
60373;BME280;46216;52.220;5.134;2023-04-03T12:21:13;103285.22;;;13.26;38.90
60373;BME280;46216;52.220;5.134;2023-04-03T12:23:56;103275.47;;;13.23;38.81
60373;BME280;46216;52.220;5.134;2023-04-03T12:26:25;103281.91;;;13.40;39.29
60373;BME280;46216;52.220;5.134;2023-04-03T12:28:53;103264.72;;;13.05;38.78
60373;BME280;46216;52.220;5.134;2023-04-03T12:31:19;103267.66;;;13.19;39.36
60373;BME280;46216;52.220;5.134;2023-04-03T12:34:10;103270.25;;;13.20;37.75
60373;BME280;46216;52.220;5.134;2023-04-03T12:45:13;103251.22;;;13.85;38.04
60373;BME280;46216;52.220;5.134;2023-04-03T12:47:43;103242.44;;;14.00;38.83
60373;BME280;46216;52.220;5.134;2023-04-03T12:50:28;103237.75;;;13.86;39.32
60373;BME280;46216;52.220;5.134;2023-04-03T12:53:10;103237.19;;;13.80;39.20
60373;BME280;46216;52.220;5.134;2023-04-03T12:55:37;103251.94;;;13.88;39.42
60373;BME280;46216;52.220;5.134;2023-04-03T13:00:59;103244.09;;;14.39;41.47
60373;BME280;46216;52.220;5.134;2023-04-03T13:03:26;103231.13;;;14.30;39.33
60373;BME280;46216;52.220;5.134;2023-04-03T13:05:54;103236.47;;;13.57;37.33
60373;BME280;46216;52.220;5.134;2023-04-03T13:08:22;103246.69;;;13.49;37.24
60373;BME280;46216;52.220;5.134;2023-04-03T13:10:55;103235.16;;;13.47;36.83
60373;BME280;46216;52.220;5.134;2023-04-03T13:13:21;103233.84;;;13.75;38.01
60373;BME280;46216;52.220;5.134;2023-04-03T13:15:48;103228.91;;;14.03;39.22
60373;BME280;46216;52.220;5.134;2023-04-03T13:18:35;103227.47;;;13.77;38.24
60373;BME280;46216;52.220;5.134;2023-04-03T13:21:12;103220.81;;;13.48;38.31
60373;BME280;46216;52.220;5.134;2023-04-03T13:23:40;103225.56;;;13.98;39.51
60373;BME280;46216;52.220;5.134;2023-04-03T13:26:08;103233.63;;;13.60;38.02
60373;BME280;46216;52.220;5.134;2023-04-03T13:28:34;103228.50;;;13.56;38.44
60373;BME280;46216;52.220;5.134;2023-04-03T13:31:04;103225.44;;;13.63;37.92
60373;BME280;46216;52.220;5.134;2023-04-03T13:33:34;103227.59;;;13.93;38.40
60373;BME280;46216;52.220;5.134;2023-04-03T13:36:26;103222.53;;;13.87;37.51
60373;BME280;46216;52.220;5.134;2023-04-03T13:41:46;103218.63;;;13.94;37.98
60373;BME280;46216;52.220;5.134;2023-04-03T13:46:46;103212.66;;;14.06;38.44
60373;BME280;46216;52.220;5.134;2023-04-03T13:49:36;103207.28;;;14.06;37.55
60373;BME280;46216;52.220;5.134;2023-04-03T13:52:23;103226.41;;;13.99;38.45
60373;BME280;46216;52.220;5.134;2023-04-03T13:55:03;103222.81;;;14.00;39.04
60373;BME280;46216;52.220;5.134;2023-04-03T13:57:36;103218.50;;;14.14;39.64
60373;BME280;46216;52.220;5.134;2023-04-03T14:00:20;103216.00;;;13.92;37.88
60373;BME280;46216;52.220;5.134;2023-04-03T14:02:47;103206.53;;;14.03;37.67
60373;BME280;46216;52.220;5.134;2023-04-03T14:05:13;103206.97;;;14.12;38.32
60373;BME280;46216;52.220;5.134;2023-04-03T14:07:38;103208.91;;;13.91;37.02
60373;BME280;46216;52.220;5.134;2023-04-03T14:10:04;103205.38;;;14.08;37.56
60373;BME280;46216;52.220;5.134;2023-04-03T14:12:36;103196.03;;;14.34;38.31
60373;BME280;46216;52.220;5.134;2023-04-03T14:15:05;103194.13;;;14.36;38.86
60373;BME280;46216;52.220;5.134;2023-04-03T14:17:36;103195.78;;;14.22;38.20
60373;BME280;46216;52.220;5.134;2023-04-03T14:20:03;103193.41;;;14.15;38.22
60373;BME280;46216;52.220;5.134;2023-04-03T14:22:32;103192.94;;;14.07;37.32
60373;BME280;46216;52.220;5.134;2023-04-03T14:24:59;103183.28;;;13.86;35.60
60373;BME280;46216;52.220;5.134;2023-04-03T14:27:37;103184.00;;;13.89;36.55